Time;durP1;ratioP1;P1;durP2;ratioP2;P2;SDS_P1;SDS_P2;PMS_P1;PMS_P2;Temp;Humidity;BMP_temperature;BMP_pressure;BME280_temperature;BME280_humidity;BME280_pressure;Samples;Min_cycle;Max_cycle;Signal;HPM_P1;HPM_P2
2021/12/09 00:00:37;;;;;;;3.57;3.27;;;14.00;53.20;;;;;;5069184;28;20560;-84
2021/12/09 00:03:42;;;;;;;7.70;3.77;;;14.00;53.10;;;;;;5050389;28;20457;-83
2021/12/09 00:06:20;;;;;;;3.30;3.00;;;14.00;53.00;;;;;;5067687;28;20498;-84
2021/12/09 00:08:48;;;;;;;4.53;3.93;;;14.00;52.90;;;;;;5069771;28;20469;-83
2021/12/09 00:11:18;;;;;;;4.67;3.40;;;14.00;52.90;;;;;;5068631;28;20438;-82
2021/12/09 00:13:46;;;;;;;5.03;3.60;;;14.00;53.00;;;;;;5072576;28;20489;-82
2021/12/09 00:16:16;;;;;;;3.93;3.50;;;14.00;52.90;;;;;;5073056;28;20493;-82
2021/12/09 00:18:45;;;;;;;3.87;3.37;;;14.00;52.90;;;;;;5072450;28;20457;-82
2021/12/09 00:21:14;;;;;;;8.90;3.40;;;14.00;53.00;;;;;;5071420;28;20481;-83
2021/12/09 00:23:42;;;;;;;4.10;3.50;;;14.00;53.10;;;;;;5069573;28;20493;-82
2021/12/09 00:26:11;;;;;;;12.40;4.20;;;14.00;53.00;;;;;;5072428;28;20462;-81
2021/12/09 00:28:38;;;;;;;4.37;3.30;;;14.00;53.00;;;;;;5068110;28;20438;-82
2021/12/09 00:31:07;;;;;;;4.97;3.83;;;14.00;53.00;;;;;;5072161;28;20511;-82
2021/12/09 00:33:40;;;;;;;4.00;3.63;;;14.00;53.10;;;;;;5073498;28;21098;-82
2021/12/09 00:36:09;;;;;;;5.20;3.87;;;14.00;53.00;;;;;;5070548;28;20481;-82
2021/12/09 00:38:43;;;;;;;3.53;2.97;;;14.00;53.00;;;;;;5070718;28;20465;-84
2021/12/09 00:41:13;;;;;;;4.20;3.80;;;14.00;53.10;;;;;;5069147;28;20598;-83
2021/12/09 00:43:43;;;;;;;5.60;3.50;;;14.00;53.10;;;;;;5066484;28;20473;-83
2021/12/09 00:46:12;;;;;;;4.47;3.37;;;14.00;53.00;;;;;;5072488;28;20500;-84
2021/12/09 00:48:40;;;;;;;4.90;3.77;;;14.00;53.10;;;;;;5072254;28;20455;-84
2021/12/09 00:51:25;;;;;;;3.90;3.50;;;14.00;53.10;;;;;;5070320;28;20506;-83
2021/12/09 00:54:04;;;;;;;6.40;3.80;;;14.00;53.20;;;;;;5074933;28;20564;-85
2021/12/09 00:56:36;;;;;;;6.00;3.20;;;14.10;53.30;;;;;;5077093;28;20463;-85
2021/12/09 00:59:05;;;;;;;5.27;3.40;;;14.00;53.20;;;;;;5074738;28;20438;-85
2021/12/09 01:01:34;;;;;;;5.70;3.57;;;14.00;53.20;;;;;;5072260;28;20501;-84
2021/12/09 01:04:04;;;;;;;5.53;4.10;;;14.00;53.10;;;;;;5073419;28;20469;-84
2021/12/09 01:06:32;;;;;;;6.20;3.40;;;14.00;53.20;;;;;;5072659;28;20976;-84
2021/12/09 01:09:00;;;;;;;5.13;4.00;;;14.00;53.20;;;;;;5071496;28;20533;-83
2021/12/09 01:11:29;;;;;;;4.17;3.53;;;14.00;53.30;;;;;;5072032;28;20450;-83
2021/12/09 01:13:58;;;;;;;6.83;3.87;;;14.10;53.40;;;;;;5071820;28;20462;-83
2021/12/09 01:16:29;;;;;;;5.50;3.10;;;14.10;53.40;;;;;;5065796;28;20480;-84
2021/12/09 01:18:58;;;;;;;4.93;4.00;;;14.10;53.40;;;;;;5070580;28;20450;-83
2021/12/09 01:21:28;;;;;;;5.07;3.70;;;14.10;53.50;;;;;;5067905;28;20477;-85
2021/12/09 01:23:57;;;;;;;4.57;3.50;;;14.10;53.40;;;;;;5066141;28;20509;-84
2021/12/09 01:26:27;;;;;;;4.03;3.57;;;14.10;53.50;;;;;;5068628;28;20454;-84
2021/12/09 01:29:00;;;;;;;4.03;3.57;;;14.10;53.40;;;;;;5069791;28;20442;-83
2021/12/09 01:31:33;;;;;;;3.80;3.33;;;14.10;53.40;;;;;;5067762;28;20465;-83
2021/12/09 01:34:02;;;;;;;4.27;3.40;;;14.10;53.50;;;;;;5069987;28;20492;-81
2021/12/09 01:36:31;;;;;;;6.70;3.80;;;14.20;53.60;;;;;;5069809;28;20446;-81
2021/12/09 01:38:59;;;;;;;4.10;3.70;;;14.20;53.50;;;;;;5066964;28;20449;-81
2021/12/09 01:41:27;;;;;;;3.70;3.40;;;14.20;53.50;;;;;;5065151;28;20561;-81
2021/12/09 01:43:56;;;;;;;5.87;3.60;;;14.20;53.50;;;;;;5065434;28;20453;-81
2021/12/09 01:46:24;;;;;;;3.00;2.80;;;14.20;53.60;;;;;;5065867;28;20450;-81
2021/12/09 01:48:52;;;;;;;4.70;3.47;;;14.20;53.70;;;;;;5065844;28;20445;-81
2021/12/09 01:51:21;;;;;;;4.20;3.40;;;14.20;53.60;;;;;;5065776;28;20528;-81
2021/12/09 01:53:50;;;;;;;5.83;3.60;;;14.20;53.70;;;;;;5069228;28;20540;-82
2021/12/09 01:56:20;;;;;;;3.90;3.47;;;14.20;53.80;;;;;;5067005;28;20431;-82
2021/12/09 01:58:49;;;;;;;5.77;3.63;;;14.20;53.80;;;;;;5066946;28;20439;-82
2021/12/09 02:01:18;;;;;;;3.30;3.00;;;14.10;53.80;;;;;;5070025;28;20473;-82
2021/12/09 02:03:47;;;;;;;4.60;3.90;;;14.20;53.80;;;;;;5072334;28;20449;-82
2021/12/09 02:06:16;;;;;;;3.60;3.30;;;14.20;53.80;;;;;;5068292;28;20445;-82
2021/12/09 02:08:43;;;;;;;3.50;3.20;;;14.20;53.80;;;;;;5067443;28;20439;-82
2021/12/09 02:11:12;;;;;;;3.70;3.20;;;14.20;53.80;;;;;;5063831;28;20450;-82
2021/12/09 02:13:40;;;;;;;3.30;3.00;;;14.20;54.00;;;;;;5069070;28;20482;-82
2021/12/09 02:16:09;;;;;;;3.87;3.27;;;14.20;53.80;;;;;;5066211;28;20446;-82
2021/12/09 02:18:39;;;;;;;4.40;3.60;;;14.20;53.90;;;;;;5069604;28;20536;-82
2021/12/09 02:21:12;;;;;;;3.73;3.10;;;14.20;53.90;;;;;;5063962;28;20470;-82
2021/12/09 02:23:41;;;;;;;3.70;3.40;;;14.20;53.90;;;;;;5065515;28;20489;-82
2021/12/09 02:26:09;;;;;;;4.10;3.37;;;14.20;53.80;;;;;;5067813;28;20442;-82
2021/12/09 02:28:36;;;;;;;3.50;3.20;;;14.20;53.90;;;;;;5068201;28;20588;-82
2021/12/09 02:31:05;;;;;;;3.70;3.07;;;14.20;54.00;;;;;;5067753;28;20423;-82
2021/12/09 02:33:33;;;;;;;3.43;3.13;;;14.20;53.90;;;;;;5069698;28;20478;-83
2021/12/09 02:36:01;;;;;;;5.90;3.97;;;14.20;53.90;;;;;;5067718;28;20504;-82
2021/12/09 02:38:30;;;;;;;5.30;3.77;;;14.20;54.00;;;;;;5067953;28;20433;-83
2021/12/09 02:40:59;;;;;;;3.83;3.50;;;14.20;54.00;;;;;;5067991;28;20445;-83
2021/12/09 02:43:28;;;;;;;3.93;3.43;;;14.20;54.00;;;;;;5067882;28;20549;-83
2021/12/09 02:45:56;;;;;;;3.90;3.50;;;14.20;54.00;;;;;;5068391;28;20431;-84
2021/12/09 02:48:25;;;;;;;3.47;3.17;;;14.20;54.20;;;;;;5068075;28;20454;-84
2021/12/09 02:50:53;;;;;;;4.47;3.73;;;14.20;54.10;;;;;;5069164;28;20430;-84
2021/12/09 02:53:21;;;;;;;4.60;3.70;;;14.20;54.20;;;;;;5065424;28;20545;-83
2021/12/09 02:55:51;;;;;;;3.70;3.30;;;14.20;54.20;;;;;;5067271;28;20516;-83
2021/12/09 02:58:20;;;;;;;4.23;3.17;;;14.20;54.30;;;;;;5068319;28;20447;-83
2021/12/09 03:00:56;;;;;;;3.90;3.20;;;14.20;54.20;;;;;;5069211;28;20457;-83
2021/12/09 03:03:24;;;;;;;3.53;3.23;;;14.20;54.10;;;;;;5066892;28;20454;-83
2021/12/09 03:05:53;;;;;;;3.70;3.30;;;14.20;54.10;;;;;;5066078;28;20470;-83
2021/12/09 03:08:33;;;;;;;4.80;3.17;;;14.20;54.10;;;;;;5067383;28;20438;-84
2021/12/09 03:11:06;;;;;;;7.10;3.60;;;14.20;54.20;;;;;;5068164;28;20450;-82
2021/12/09 03:13:35;;;;;;;3.53;3.10;;;14.20;54.10;;;;;;5069428;28;20552;-83
2021/12/09 03:16:03;;;;;;;4.80;3.23;;;14.20;54.30;;;;;;5068981;28;20502;-83
2021/12/09 03:18:31;;;;;;;3.67;3.37;;;14.20;54.20;;;;;;5064509;28;20476;-83
2021/12/09 03:20:59;;;;;;;4.93;3.07;;;14.20;54.30;;;;;;5068481;28;20434;-83
2021/12/09 03:23:28;;;;;;;3.90;3.30;;;14.20;54.10;;;;;;5065781;28;20454;-83
2021/12/09 03:25:57;;;;;;;3.43;3.20;;;14.20;54.20;;;;;;5068197;28;20477;-82
2021/12/09 03:28:26;;;;;;;3.30;3.00;;;14.20;54.20;;;;;;5067670;28;20442;-83
2021/12/09 03:30:54;;;;;;;4.13;3.60;;;14.20;54.20;;;;;;5065150;28;20456;-84
2021/12/09 03:33:22;;;;;;;5.70;3.57;;;14.20;54.20;;;;;;5067049;28;20460;-83
2021/12/09 03:35:57;;;;;;;4.97;3.70;;;14.10;54.20;;;;;;5064596;28;20431;-82
2021/12/09 03:38:25;;;;;;;4.63;3.30;;;14.10;54.20;;;;;;5068173;28;20875;-83
2021/12/09 03:40:53;;;;;;;4.27;3.60;;;14.20;54.20;;;;;;5064882;28;20580;-81
2021/12/09 03:43:21;;;;;;;5.20;3.23;;;14.20;54.30;;;;;;5065624;28;20561;-82
2021/12/09 03:45:53;;;;;;;4.10;3.40;;;14.10;54.20;;;;;;5062186;28;20473;-83
2021/12/09 03:48:20;;;;;;;4.20;3.60;;;14.10;54.20;;;;;;5063903;28;20443;-83
2021/12/09 03:50:48;;;;;;;3.47;3.17;;;14.20;54.40;;;;;;5066173;28;20462;-82
2021/12/09 03:53:17;;;;;;;5.10;3.90;;;14.10;54.20;;;;;;5064418;28;20435;-82
2021/12/09 03:55:44;;;;;;;3.97;3.13;;;14.10;54.30;;;;;;5063440;28;20468;-82
2021/12/09 03:58:13;;;;;;;4.17;3.50;;;14.20;54.30;;;;;;5067062;28;20453;-82
2021/12/09 04:00:41;;;;;;;3.30;3.00;;;14.20;54.30;;;;;;5067011;28;20460;-82
2021/12/09 04:03:10;;;;;;;8.60;3.10;;;14.20;54.40;;;;;;5063776;28;20469;-82
2021/12/09 04:05:38;;;;;;;3.60;3.30;;;14.10;54.20;;;;;;5056269;28;20541;-83
2021/12/09 04:08:07;;;;;;;3.93;3.53;;;14.20;54.40;;;;;;5054020;28;20442;-81
2021/12/09 04:10:35;;;;;;;3.77;3.30;;;14.10;54.20;;;;;;5055476;28;20457;-82
2021/12/09 04:13:03;;;;;;;4.30;3.47;;;14.10;54.20;;;;;;5057385;28;20446;-83
2021/12/09 04:15:32;;;;;;;3.60;3.13;;;14.20;54.30;;;;;;5054972;28;20450;-82
2021/12/09 04:18:00;;;;;;;5.50;3.90;;;14.10;54.20;;;;;;5058662;28;20438;-83
2021/12/09 04:20:30;;;;;;;3.60;3.30;;;14.20;54.20;;;;;;5056647;28;20446;-83
2021/12/09 04:22:57;;;;;;;3.60;3.30;;;14.10;54.20;;;;;;5057585;28;20513;-81
2021/12/09 04:25:25;;;;;;;3.53;3.23;;;14.10;54.20;;;;;;5058264;28;20477;-81
2021/12/09 04:27:55;;;;;;;4.73;3.27;;;14.10;54.20;;;;;;5059829;28;20461;-82
2021/12/09 04:30:23;;;;;;;3.77;3.33;;;14.10;54.40;;;;;;5059295;28;20483;-82
2021/12/09 04:32:52;;;;;;;3.90;3.50;;;14.10;54.20;;;;;;5058026;28;20482;-82
2021/12/09 04:35:21;;;;;;;4.93;3.73;;;14.10;54.20;;;;;;5059033;28;20537;-82
2021/12/09 04:37:50;;;;;;;5.03;3.10;;;14.10;54.20;;;;;;5061473;28;20480;-83
2021/12/09 04:40:18;;;;;;;3.30;3.00;;;14.00;54.10;;;;;;5060494;28;20548;-83
2021/12/09 04:42:46;;;;;;;4.23;3.83;;;14.10;54.20;;;;;;5057492;28;20509;-82
2021/12/09 04:45:14;;;;;;;4.20;3.80;;;14.10;54.30;;;;;;5056650;28;20469;-79
2021/12/09 04:47:42;;;;;;;4.53;3.40;;;14.10;54.20;;;;;;5057146;28;20540;-82
2021/12/09 04:50:10;;;;;;;3.47;3.13;;;14.00;54.10;;;;;;5055196;28;20510;-82
2021/12/09 04:52:39;;;;;;;6.00;3.20;;;14.00;54.10;;;;;;5055734;28;20526;-83
2021/12/09 04:55:09;;;;;;;3.47;3.20;;;14.00;54.20;;;;;;5055109;28;20863;-82
2021/12/09 04:57:38;;;;;;;3.70;3.27;;;14.00;54.10;;;;;;5054487;28;20442;-82
2021/12/09 05:00:07;;;;;;;17.03;3.50;;;14.00;54.10;;;;;;5054590;28;20511;-82
2021/12/09 05:02:49;;;;;;;3.83;3.37;;;14.00;54.20;;;;;;5054533;28;20573;-82
2021/12/09 05:05:18;;;;;;;3.70;2.80;;;14.00;54.10;;;;;;5053917;28;20434;-82
2021/12/09 05:07:46;;;;;;;4.90;3.37;;;14.00;54.10;;;;;;5053303;28;20557;-82
2021/12/09 05:10:16;;;;;;;3.30;3.00;;;13.90;54.00;;;;;;5055585;28;20481;-82
2021/12/09 05:12:44;;;;;;;4.87;3.20;;;13.90;54.10;;;;;;5056372;28;20450;-82
2021/12/09 05:15:12;;;;;;;3.47;3.23;;;13.90;54.10;;;;;;5056258;28;20430;-82
2021/12/09 05:17:40;;;;;;;3.83;3.10;;;13.90;54.10;;;;;;5055928;28;20958;-83
2021/12/09 05:20:08;;;;;;;9.50;3.50;;;13.90;54.10;;;;;;5057800;28;20466;-80
2021/12/09 05:22:36;;;;;;;8.43;3.10;;;13.90;54.00;;;;;;5057919;28;20484;-81
2021/12/09 05:25:05;;;;;;;3.57;3.23;;;13.80;54.10;;;;;;5058258;28;20438;-84
2021/12/09 05:27:36;;;;;;;4.50;3.20;;;13.90;54.00;;;;;;5060744;28;20936;-83
2021/12/09 05:30:08;;;;;;;3.77;3.30;;;13.80;54.00;;;;;;5058901;28;20457;-82
2021/12/09 05:32:34;;;;;;;3.80;3.30;;;13.80;53.90;;;;;;5056859;28;20450;-83
2021/12/09 05:35:05;;;;;;;3.73;3.43;;;13.80;53.80;;;;;;5054552;28;20516;-83
2021/12/09 05:37:32;;;;;;;5.53;3.50;;;13.80;53.70;;;;;;5053398;28;20475;-82
2021/12/09 05:40:01;;;;;;;4.97;3.67;;;13.80;53.90;;;;;;5055724;28;20545;-83
2021/12/09 05:42:31;;;;;;;3.40;3.13;;;13.80;53.80;;;;;;5055033;28;20869;-81
2021/12/09 05:45:00;;;;;;;3.43;3.13;;;13.80;53.80;;;;;;5063127;28;20450;-82
2021/12/09 05:47:28;;;;;;;3.60;3.17;;;13.80;54.40;;;;;;5071602;28;20449;-81
2021/12/09 05:49:56;;;;;;;6.80;3.13;;;13.70;53.70;;;;;;5076646;28;20430;-82
2021/12/09 05:52:24;;;;;;;7.57;3.57;;;13.70;53.80;;;;;;5076204;28;20493;-82
2021/12/09 05:54:51;;;;;;;6.10;3.40;;;13.70;54.40;;;;;;5076182;28;20438;-82
2021/12/09 05:57:19;;;;;;;4.30;3.13;;;13.70;53.70;;;;;;5075847;28;20434;-82
2021/12/09 05:59:47;;;;;;;3.30;3.00;;;13.70;53.80;;;;;;5075716;28;20442;-82
2021/12/09 06:02:17;;;;;;;3.20;3.00;;;13.70;53.80;;;;;;5072636;28;20524;-82
2021/12/09 06:04:46;;;;;;;6.83;3.60;;;13.70;53.70;;;;;;5067656;28;20503;-82
2021/12/09 06:07:14;;;;;;;5.17;3.53;;;13.70;53.50;;;;;;5075478;28;20470;-81
2021/12/09 06:09:42;;;;;;;5.43;3.87;;;13.70;53.60;;;;;;5075314;28;20431;-81
2021/12/09 06:12:10;;;;;;;4.60;3.80;;;13.60;53.60;;;;;;5075868;28;20465;-81
2021/12/09 06:14:39;;;;;;;3.80;3.30;;;13.60;53.50;;;;;;5075631;28;20524;-81
2021/12/09 06:17:07;;;;;;;4.27;3.60;;;13.70;53.60;;;;;;5075550;28;20481;-81
2021/12/09 06:19:37;;;;;;;3.37;3.03;;;13.70;53.50;;;;;;5072818;28;20552;-81
2021/12/09 06:22:05;;;;;;;14.97;3.90;;;13.60;53.40;;;;;;5072180;28;20470;-82
2021/12/09 06:24:33;;;;;;;4.50;4.07;;;13.60;53.40;;;;;;5075114;28;20499;-81
2021/12/09 06:27:03;;;;;;;4.20;3.37;;;13.60;53.50;;;;;;5075345;28;20493;-81
2021/12/09 06:29:32;;;;;;;4.10;3.27;;;13.60;53.40;;;;;;5074859;28;20964;-81
2021/12/09 06:32:00;;;;;;;5.57;3.37;;;13.60;53.40;;;;;;5075009;28;20488;-81
2021/12/09 06:34:27;;;;;;;3.40;3.10;;;13.60;53.30;;;;;;5075150;28;20454;-81
2021/12/09 06:36:56;;;;;;;4.13;3.33;;;13.60;53.40;;;;;;5066985;28;20537;-82
2021/12/09 06:39:25;;;;;;;5.37;3.23;;;13.50;53.30;;;;;;5070001;28;20457;-82
2021/12/09 06:41:52;;;;;;;7.63;3.90;;;13.50;53.30;;;;;;5075192;28;20525;-82
2021/12/09 06:44:21;;;;;;;3.47;3.17;;;13.50;53.30;;;;;;5074929;28;20509;-82
2021/12/09 06:46:49;;;;;;;3.40;3.10;;;13.50;53.40;;;;;;5075264;28;20553;-82
2021/12/09 06:49:17;;;;;;;4.03;3.27;;;13.50;53.20;;;;;;5074752;28;20449;-82
2021/12/09 06:51:45;;;;;;;4.40;3.40;;;13.50;53.20;;;;;;5071965;28;20537;-81
2021/12/09 06:54:14;;;;;;;4.07;3.53;;;13.50;53.20;;;;;;5075124;28;21023;-82
2021/12/09 06:56:42;;;;;;;3.03;2.83;;;13.50;53.20;;;;;;5075412;28;20472;-81
2021/12/09 06:59:10;;;;;;;5.70;3.70;;;13.50;53.20;;;;;;5075363;28;20524;-82
2021/12/09 07:01:38;;;;;;;4.53;3.40;;;13.50;53.20;;;;;;5074752;28;20552;-81
2021/12/09 07:04:08;;;;;;;3.63;3.30;;;13.40;53.10;;;;;;5075067;28;20480;-81
2021/12/09 07:06:37;;;;;;;7.70;4.00;;;13.40;53.10;;;;;;5074862;28;20497;-81
2021/12/09 07:09:05;;;;;;;3.97;3.57;;;13.40;53.20;;;;;;5070784;28;20536;-81
2021/12/09 07:11:44;;;;;;;5.70;3.67;;;13.50;53.10;;;;;;5058462;28;20435;-81
2021/12/09 07:14:11;;;;;;;5.00;3.80;;;13.50;53.10;;;;;;5055450;28;20458;-82
2021/12/09 07:16:40;;;;;;;4.83;3.83;;;13.50;52.90;;;;;;5054837;28;20450;-82
2021/12/09 07:19:08;;;;;;;4.10;3.27;;;13.40;52.90;;;;;;5055560;28;20525;-82
2021/12/09 07:21:36;;;;;;;5.33;3.60;;;13.50;53.00;;;;;;5055522;28;20485;-82
2021/12/09 07:24:04;;;;;;;4.17;3.80;;;13.40;52.90;;;;;;5056825;28;20531;-81
2021/12/09 07:26:32;;;;;;;3.93;3.53;;;13.40;52.90;;;;;;5073868;28;20453;-81
2021/12/09 07:29:01;;;;;;;3.63;3.33;;;13.40;52.90;;;;;;5055166;28;20434;-82
2021/12/09 07:31:30;;;;;;;4.87;3.87;;;13.40;53.00;;;;;;5055003;28;20438;-82
2021/12/09 07:33:58;;;;;;;3.67;3.37;;;13.30;52.90;;;;;;5055507;28;20489;-82
2021/12/09 07:36:26;;;;;;;4.33;3.93;;;13.30;53.00;;;;;;5055090;28;20458;-82
2021/12/09 07:38:54;;;;;;;4.87;4.20;;;13.40;53.00;;;;;;5054744;28;20458;-82
2021/12/09 07:41:24;;;;;;;4.00;3.33;;;13.40;53.00;;;;;;5064901;28;20473;-81
2021/12/09 07:43:52;;;;;;;3.70;3.40;;;13.40;53.00;;;;;;5065733;28;20493;-81
2021/12/09 07:46:21;;;;;;;4.53;3.70;;;13.40;53.00;;;;;;5073706;28;20517;-82
2021/12/09 07:48:49;;;;;;;4.07;3.60;;;13.40;53.00;;;;;;5072946;28;20553;-81
2021/12/09 07:51:17;;;;;;;4.93;3.40;;;13.30;52.70;;;;;;5074475;28;20457;-82
2021/12/09 07:53:45;;;;;;;3.60;3.30;;;13.30;52.80;;;;;;5074578;28;20994;-82
2021/12/09 07:56:13;;;;;;;4.03;3.27;;;13.30;52.90;;;;;;5074897;28;20488;-82
2021/12/09 07:58:41;;;;;;;4.70;3.80;;;13.30;52.80;;;;;;5075064;28;20971;-82
2021/12/09 08:01:10;;;;;;;3.70;3.40;;;13.40;52.90;;;;;;5071074;28;20524;-82
2021/12/09 08:03:40;;;;;;;4.73;3.43;;;13.40;52.60;;;;;;5077481;28;20541;-81
2021/12/09 08:06:08;;;;;;;7.80;3.40;;;13.40;52.80;;;;;;5078814;28;20540;-82
2021/12/09 08:08:36;;;;;;;3.93;3.53;;;13.40;52.80;;;;;;5078182;28;20460;-82
2021/12/09 08:11:06;;;;;;;3.50;3.20;;;13.30;52.60;;;;;;5078901;28;20442;-82
2021/12/09 08:13:34;;;;;;;3.53;3.23;;;13.40;52.70;;;;;;5076841;28;20513;-82
2021/12/09 08:16:03;;;;;;;4.43;3.00;;;13.40;52.70;;;;;;5078365;28;20512;-82
2021/12/09 08:18:43;;;;;;;4.07;3.50;;;13.40;52.60;;;;;;5078813;28;20481;-82
2021/12/09 08:21:12;;;;;;;3.93;3.63;;;13.50;52.80;;;;;;5078411;28;20472;-82
2021/12/09 08:23:40;;;;;;;4.97;3.67;;;13.50;52.60;;;;;;5078034;28;20552;-82
2021/12/09 08:26:08;;;;;;;4.03;3.20;;;13.50;52.50;;;;;;5077386;28;20509;-82
2021/12/09 08:28:36;;;;;;;3.60;3.30;;;13.50;52.70;;;;;;5078635;28;20470;-82
2021/12/09 08:31:04;;;;;;;5.10;3.73;;;13.50;52.60;;;;;;5075315;28;20453;-82
2021/12/09 08:33:32;;;;;;;3.27;2.97;;;13.50;52.60;;;;;;5069720;28;20553;-82
2021/12/09 08:36:00;;;;;;;4.13;3.60;;;13.60;52.70;;;;;;5078189;28;20438;-82
2021/12/09 08:38:29;;;;;;;4.10;3.53;;;13.60;52.70;;;;;;5077560;28;20470;-82
2021/12/09 08:40:58;;;;;;;3.70;3.30;;;13.60;52.80;;;;;;5078070;28;20434;-82
2021/12/09 08:43:26;;;;;;;4.13;3.73;;;13.70;52.70;;;;;;5077999;28;20521;-82
2021/12/09 08:45:55;;;;;;;6.33;3.60;;;13.70;52.70;;;;;;5076811;28;20504;-82
2021/12/09 08:48:23;;;;;;;3.73;3.43;;;13.80;52.70;;;;;;5067881;28;20501;-82
2021/12/09 08:50:51;;;;;;;4.80;3.53;;;13.80;52.60;;;;;;5076649;28;20501;-82
2021/12/09 08:53:21;;;;;;;6.67;3.90;;;13.90;52.70;;;;;;5078171;28;20458;-82
2021/12/09 08:55:50;;;;;;;4.20;3.40;;;13.90;52.70;;;;;;5077211;28;20426;-81
2021/12/09 08:58:20;;;;;;;5.17;4.00;;;14.00;52.80;;;;;;5077586;28;20472;-81
2021/12/09 09:00:49;;;;;;;4.70;4.10;;;14.00;52.60;;;;;;5074942;28;20469;-81
2021/12/09 09:03:17;;;;;;;5.03;3.73;;;14.00;52.60;;;;;;5076602;28;20489;-81
2021/12/09 09:05:46;;;;;;;4.37;3.93;;;14.00;52.70;;;;;;5075583;28;20556;-81
2021/12/09 09:08:13;;;;;;;4.47;3.43;;;14.00;52.60;;;;;;5073350;28;20465;-81
2021/12/09 09:10:42;;;;;;;4.47;3.70;;;14.00;52.50;;;;;;5076997;28;20469;-81
2021/12/09 09:13:12;;;;;;;6.00;4.20;;;14.00;52.70;;;;;;5076697;28;20481;-81
2021/12/09 09:15:40;;;;;;;5.33;4.00;;;14.00;52.70;;;;;;5076954;28;20434;-81
2021/12/09 09:18:08;;;;;;;6.20;3.63;;;14.00;52.70;;;;;;5074500;28;21039;-81
2021/12/09 09:20:39;;;;;;;4.57;3.53;;;14.10;52.70;;;;;;5072102;28;20549;-81
2021/12/09 09:23:09;;;;;;;5.60;3.87;;;14.10;52.70;;;;;;5065791;28;20497;-81
2021/12/09 09:25:37;;;;;;;6.90;4.50;;;14.10;52.80;;;;;;5057346;28;20502;-81
2021/12/09 09:28:05;;;;;;;4.80;3.97;;;14.20;52.80;;;;;;5057462;28;20537;-81
2021/12/09 09:30:36;;;;;;;4.90;3.90;;;14.20;52.90;;;;;;5056712;28;20525;-81
2021/12/09 09:33:05;;;;;;;3.90;3.60;;;14.20;52.70;;;;;;5056762;28;20478;-79
2021/12/09 09:35:33;;;;;;;4.60;4.07;;;14.20;52.90;;;;;;5056514;28;20438;-81
2021/12/09 09:38:02;;;;;;;4.80;3.70;;;14.20;52.80;;;;;;5070312;28;20449;-81
2021/12/09 09:40:40;;;;;;;4.23;3.87;;;14.30;52.80;;;;;;5061194;28;20505;-81
2021/12/09 09:43:26;;;;;;;4.90;4.40;;;14.30;52.80;;;;;;5056665;28;20546;-81
2021/12/09 09:46:02;;;;;;;4.90;4.10;;;14.30;52.80;;;;;;5056745;28;20501;-81
2021/12/09 09:48:30;;;;;;;4.23;3.83;;;14.30;52.60;;;;;;5056032;28;20458;-81
2021/12/09 09:50:58;;;;;;;4.60;4.00;;;14.30;52.80;;;;;;5055955;28;20477;-81
2021/12/09 09:53:26;;;;;;;5.67;4.70;;;14.30;52.70;;;;;;5056793;28;20526;-81
2021/12/09 09:55:54;;;;;;;4.63;3.70;;;14.30;52.80;;;;;;5067123;28;20529;-81
2021/12/09 09:58:23;;;;;;;4.60;4.03;;;14.40;52.90;;;;;;5076420;28;20426;-81
2021/12/09 10:00:51;;;;;;;5.53;4.90;;;14.50;53.00;;;;;;5076318;28;20454;-81
2021/12/09 10:03:27;;;;;;;5.57;4.43;;;14.40;52.80;;;;;;5072466;28;20462;-81
2021/12/09 10:05:57;;;;;;;4.70;4.30;;;14.50;52.80;;;;;;5075874;28;20473;-81
2021/12/09 10:08:25;;;;;;;5.00;4.23;;;14.60;52.90;;;;;;5075843;28;20516;-81
2021/12/09 10:10:53;;;;;;;6.80;4.70;;;14.60;52.90;;;;;;5073642;28;20983;-81
2021/12/09 10:13:21;;;;;;;4.30;3.90;;;14.70;53.00;;;;;;5068380;28;20459;-81
2021/12/09 10:15:50;;;;;;;4.63;4.23;;;14.80;53.00;;;;;;5074150;28;20537;-81
2021/12/09 10:18:35;;;;;;;5.60;4.40;;;14.80;52.80;;;;;;5075062;28;20461;-81
2021/12/09 10:21:03;;;;;;;5.47;4.40;;;14.90;52.90;;;;;;5075343;28;20563;-81
2021/12/09 10:23:34;;;;;;;6.80;4.63;;;15.00;52.90;;;;;;5075711;28;20481;-81
2021/12/09 10:26:21;;;;;;;6.70;4.80;;;15.00;52.60;;;;;;5075664;28;20484;-81
2021/12/09 10:28:52;;;;;;;6.30;5.00;;;15.20;52.90;;;;;;5072834;28;20536;-81
2021/12/09 10:31:24;;;;;;;6.57;5.10;;;15.20;52.80;;;;;;5067553;28;20458;-81
2021/12/09 10:34:01;;;;;;;5.80;4.87;;;15.30;52.90;;;;;;5076083;28;20457;-81
2021/12/09 10:36:50;;;;;;;5.70;5.00;;;15.50;53.10;;;;;;5075677;28;20523;-81
2021/12/09 10:39:24;;;;;;;6.70;5.13;;;15.60;53.10;;;;;;5075367;28;20473;-81
2021/12/09 10:41:52;;;;;;;6.67;5.47;;;15.80;53.10;;;;;;5076093;28;20430;-81
2021/12/09 10:44:31;;;;;;;5.70;5.10;;;15.90;53.20;;;;;;5074962;28;20545;-81
2021/12/09 10:47:06;;;;;;;5.37;4.80;;;16.10;53.20;;;;;;5070554;28;20508;-82
2021/12/09 10:49:46;;;;;;;5.87;5.17;;;16.30;53.20;;;;;;5075705;28;20429;-81
2021/12/09 10:52:25;;;;;;;6.10;5.33;;;16.50;53.20;;;;;;5075059;28;20456;-81
2021/12/09 10:54:54;;;;;;;4.93;4.43;;;16.70;53.00;;;;;;5075235;28;20469;-82
2021/12/09 10:57:26;;;;;;;6.07;5.13;;;16.90;53.10;;;;;;5075516;28;20465;-81
2021/12/09 10:59:55;;;;;;;6.77;5.60;;;17.10;53.10;;;;;;5075685;28;20512;-80
2021/12/09 11:02:23;;;;;;;5.33;4.77;;;17.20;53.00;;;;;;5072781;28;20502;-80
2021/12/09 11:05:04;;;;;;;5.50;5.00;;;17.40;53.00;;;;;;5074071;28;20520;-80
2021/12/09 11:07:33;;;;;;;7.47;5.00;;;17.60;52.90;;;;;;5075376;28;20469;-80
2021/12/09 11:10:18;;;;;;;7.07;5.30;;;17.80;52.80;;;;;;5075555;28;20434;-80
2021/12/09 11:12:55;;;;;;;5.87;5.00;;;18.00;52.70;;;;;;5074926;28;20457;-80
2021/12/09 11:15:45;;;;;;;6.43;5.50;;;18.10;52.70;;;;;;5069624;28;20463;-80
2021/12/09 11:18:32;;;;;;;5.70;5.00;;;18.20;52.80;;;;;;5070291;28;20484;-81
2021/12/09 11:21:04;;;;;;;5.80;5.20;;;18.30;52.70;;;;;;5067886;28;20454;-81
2021/12/09 11:23:35;;;;;;;5.53;5.00;;;18.30;52.80;;;;;;5069207;28;20457;-81
2021/12/09 11:26:30;;;;;;;5.87;5.27;;;18.40;52.80;;;;;;5075128;28;20469;-80
2021/12/09 11:28:59;;;;;;;6.20;5.30;;;18.60;53.00;;;;;;5072669;28;20449;-80
2021/12/09 11:31:31;;;;;;;6.70;5.27;;;18.70;52.80;;;;;;5075176;28;20551;-81
2021/12/09 11:34:03;;;;;;;7.00;5.37;;;18.70;52.80;;;;;;5079862;28;20976;-81
2021/12/09 11:36:53;;;;;;;6.23;5.63;;;18.70;52.80;;;;;;5078417;28;20433;-80
2021/12/09 11:39:27;;;;;;;7.73;5.83;;;18.70;52.80;;;;;;5073302;28;20493;-80
2021/12/09 11:42:04;;;;;;;5.67;5.13;;;18.70;52.90;;;;;;5079129;28;20519;-80
2021/12/09 11:44:52;;;;;;;7.83;6.03;;;18.80;53.00;;;;;;5079052;28;20928;-80
2021/12/09 11:47:20;;;;;;;6.00;5.40;;;18.70;53.50;;;;;;5072318;28;20513;-81
2021/12/09 11:50:07;;;;;;;8.47;5.90;;;18.80;53.20;;;;;;5074054;28;20423;-80
2021/12/09 11:52:36;;;;;;;9.83;6.20;;;18.80;53.10;;;;;;5076371;28;20445;-81
2021/12/09 11:55:06;;;;;;;6.00;5.40;;;18.80;53.20;;;;;;5074963;28;20514;-81
2021/12/09 11:57:38;;;;;;;8.10;6.10;;;18.70;53.00;;;;;;5071193;28;20468;-81
2021/12/09 12:12:18;;;;;;;6.67;5.67;;;18.20;53.40;;;;;;5070594;28;20481;-81
2021/12/09 12:14:49;;;;;;;6.17;5.53;;;18.00;53.50;;;;;;5076035;28;20483;-81
2021/12/09 12:17:25;;;;;;;6.77;5.70;;;17.90;53.60;;;;;;5077403;28;20445;-81
2021/12/09 12:20:13;;;;;;;6.13;5.53;;;17.80;53.80;;;;;;5077725;28;20952;-81
2021/12/09 12:23:08;;;;;;;8.00;6.40;;;17.70;54.00;;;;;;5075587;28;20484;-81
2021/12/09 12:28:38;;;;;;;9.90;6.20;;;17.50;54.00;;;;;;5071001;28;20542;-81
2021/12/09 12:44:24;;;;;;;8.60;6.50;;;17.40;54.10;;;;;;5138233;27;20678;-80
2021/12/09 12:46:58;;;;;;;7.67;5.93;;;17.20;54.10;;;;;;5122191;27;20533;-81
2021/12/09 12:49:32;;;;;;;7.10;5.87;;;17.10;54.20;;;;;;5123274;28;20463;-81
2021/12/09 12:52:05;;;;;;;6.67;5.93;;;17.10;54.30;;;;;;5124127;27;20535;-81
2021/12/09 12:54:45;;;;;;;7.63;5.97;;;17.10;54.30;;;;;;5121721;27;20542;-80
2021/12/09 12:57:16;;;;;;;7.10;6.40;;;17.10;54.10;;;;;;5119655;28;20424;-81
2021/12/09 12:59:46;;;;;;;7.97;5.70;;;17.10;54.10;;;;;;5121912;28;20447;-81
2021/12/09 13:02:42;;;;;;;11.13;7.03;;;17.10;54.10;;;;;;5120437;27;20524;-81
2021/12/09 13:05:44;;;;;;;9.37;6.70;;;17.10;54.00;;;;;;5122264;28;20491;-81
2021/12/09 13:11:18;;;;;;;9.17;7.40;;;17.10;53.90;;;;;;5121837;28;20441;-80
2021/12/09 13:13:57;;;;;;;10.50;7.17;;;17.10;53.70;;;;;;5124029;28;20472;-80
2021/12/09 13:16:38;;;;;;;9.97;7.10;;;16.90;53.70;;;;;;5123387;28;20485;-80
2021/12/09 13:19:10;;;;;;;8.80;6.90;;;16.80;53.80;;;;;;5119159;28;20516;-80
2021/12/09 13:21:53;;;;;;;9.03;7.43;;;16.70;53.90;;;;;;5120800;28;20431;-80
2021/12/09 13:24:37;;;;;;;9.67;6.90;;;16.60;53.90;;;;;;5122221;28;20483;-81
2021/12/09 13:27:24;;;;;;;7.90;6.60;;;16.60;54.10;;;;;;5124336;28;20459;-80
2021/12/09 13:30:13;;;;;;;11.30;7.20;;;16.50;54.10;;;;;;5132619;27;20521;-80
2021/12/09 13:35:53;;;;;;;11.40;6.77;;;16.40;54.30;;;;;;5135204;28;20514;-81
2021/12/09 13:46:56;;;;;;;7.90;7.10;;;16.20;54.40;;;;;;5083372;28;20441;-82